sensor_id;sensor_type;location;lat;lon;timestamp;P1;durP1;ratioP1;P2;durP2;ratioP2
48481;SDS011;34284;48.278;16.378;2023-07-16T00:02:15;354.65;;;292.13;;
48481;SDS011;34284;48.278;16.378;2023-07-16T00:04:41;361.25;;;296.42;;
48481;SDS011;34284;48.278;16.378;2023-07-16T00:07:07;359.33;;;292.70;;
48481;SDS011;34284;48.278;16.378;2023-07-16T00:09:35;258.30;;;211.10;;
48481;SDS011;34284;48.278;16.378;2023-07-16T00:12:01;258.63;;;212.25;;
48481;SDS011;34284;48.278;16.378;2023-07-16T00:14:27;366.65;;;291.40;;
48481;SDS011;34284;48.278;16.378;2023-07-16T00:16:53;251.85;;;210.38;;
48481;SDS011;34284;48.278;16.378;2023-07-16T00:19:19;346.77;;;284.17;;
48481;SDS011;34284;48.278;16.378;2023-07-16T00:21:45;358.70;;;287.35;;
48481;SDS011;34284;48.278;16.378;2023-07-16T00:24:11;349.25;;;283.90;;
48481;SDS011;34284;48.278;16.378;2023-07-16T00:26:37;365.17;;;292.42;;
48481;SDS011;34284;48.278;16.378;2023-07-16T00:29:03;355.90;;;287.98;;
48481;SDS011;34284;48.278;16.378;2023-07-16T00:31:30;358.70;;;290.48;;
48481;SDS011;34284;48.278;16.378;2023-07-16T00:33:56;355.92;;;288.58;;
48481;SDS011;34284;48.278;16.378;2023-07-16T00:36:22;365.23;;;294.17;;
48481;SDS011;34284;48.278;16.378;2023-07-16T00:38:48;251.27;;;220.38;;
48481;SDS011;34284;48.278;16.378;2023-07-16T00:41:15;347.75;;;289.52;;
48481;SDS011;34284;48.278;16.378;2023-07-16T00:43:41;337.63;;;290.02;;
48481;SDS011;34284;48.278;16.378;2023-07-16T00:46:08;345.77;;;289.67;;
48481;SDS011;34284;48.278;16.378;2023-07-16T00:48:34;354.88;;;306.77;;
48481;SDS011;34284;48.278;16.378;2023-07-16T00:51:02;350.38;;;295.73;;
48481;SDS011;34284;48.278;16.378;2023-07-16T00:53:28;343.40;;;286.70;;
48481;SDS011;34284;48.278;16.378;2023-07-16T00:55:56;343.67;;;287.15;;
48481;SDS011;34284;48.278;16.378;2023-07-16T00:58:22;343.30;;;285.52;;
48481;SDS011;34284;48.278;16.378;2023-07-16T01:00:48;346.55;;;284.55;;
48481;SDS011;34284;48.278;16.378;2023-07-16T01:03:14;233.63;;;201.95;;
48481;SDS011;34284;48.278;16.378;2023-07-16T01:08:27;346.90;;;283.60;;
48481;SDS011;34284;48.278;16.378;2023-07-16T01:10:57;343.70;;;285.52;;
48481;SDS011;34284;48.278;16.378;2023-07-16T01:13:23;341.00;;;289.80;;
48481;SDS011;34284;48.278;16.378;2023-07-16T01:15:50;343.90;;;288.02;;
48481;SDS011;34284;48.278;16.378;2023-07-16T01:18:16;236.27;;;198.43;;
48481;SDS011;34284;48.278;16.378;2023-07-16T01:20:42;347.88;;;291.38;;
48481;SDS011;34284;48.278;16.378;2023-07-16T01:23:13;347.88;;;287.58;;
48481;SDS011;34284;48.278;16.378;2023-07-16T01:31:13;349.65;;;288.92;;
48481;SDS011;34284;48.278;16.378;2023-07-16T01:33:39;345.73;;;287.13;;
48481;SDS011;34284;48.278;16.378;2023-07-16T01:36:06;357.52;;;288.60;;
48481;SDS011;34284;48.278;16.378;2023-07-16T01:38:33;237.60;;;198.43;;
48481;SDS011;34284;48.278;16.378;2023-07-16T01:41:00;239.27;;;196.40;;
48481;SDS011;34284;48.278;16.378;2023-07-16T01:43:26;349.25;;;291.05;;
48481;SDS011;34284;48.278;16.378;2023-07-16T01:45:52;346.08;;;290.25;;
48481;SDS011;34284;48.278;16.378;2023-07-16T01:48:28;341.95;;;287.52;;
48481;SDS011;34284;48.278;16.378;2023-07-16T01:50:55;356.88;;;289.05;;
48481;SDS011;34284;48.278;16.378;2023-07-16T01:53:21;346.52;;;288.65;;
48481;SDS011;34284;48.278;16.378;2023-07-16T01:55:47;347.63;;;284.85;;
48481;SDS011;34284;48.278;16.378;2023-07-16T01:58:13;363.40;;;295.75;;
48481;SDS011;34284;48.278;16.378;2023-07-16T02:00:39;358.98;;;294.77;;
48481;SDS011;34284;48.278;16.378;2023-07-16T02:03:05;357.65;;;291.45;;
48481;SDS011;34284;48.278;16.378;2023-07-16T02:05:31;359.27;;;289.98;;
48481;SDS011;34284;48.278;16.378;2023-07-16T02:07:58;237.18;;;198.90;;
48481;SDS011;34284;48.278;16.378;2023-07-16T02:10:24;346.00;;;284.88;;
48481;SDS011;34284;48.278;16.378;2023-07-16T02:12:50;239.43;;;195.88;;
48481;SDS011;34284;48.278;16.378;2023-07-16T02:15:16;353.55;;;292.77;;
48481;SDS011;34284;48.278;16.378;2023-07-16T02:17:43;350.00;;;283.13;;
48481;SDS011;34284;48.278;16.378;2023-07-16T02:20:09;241.45;;;203.23;;
48481;SDS011;34284;48.278;16.378;2023-07-16T02:22:38;341.45;;;279.58;;
48481;SDS011;34284;48.278;16.378;2023-07-16T02:25:05;352.20;;;286.48;;
48481;SDS011;34284;48.278;16.378;2023-07-16T02:27:31;345.45;;;285.33;;
48481;SDS011;34284;48.278;16.378;2023-07-16T02:29:57;351.30;;;287.60;;
48481;SDS011;34284;48.278;16.378;2023-07-16T02:32:23;346.92;;;286.60;;
48481;SDS011;34284;48.278;16.378;2023-07-16T02:34:49;347.42;;;286.77;;
48481;SDS011;34284;48.278;16.378;2023-07-16T02:37:15;227.32;;;198.50;;
48481;SDS011;34284;48.278;16.378;2023-07-16T02:39:42;348.77;;;288.73;;
48481;SDS011;34284;48.278;16.378;2023-07-16T02:42:08;230.65;;;199.75;;
48481;SDS011;34284;48.278;16.378;2023-07-16T02:44:34;342.65;;;284.58;;
48481;SDS011;34284;48.278;16.378;2023-07-16T02:47:03;233.65;;;199.35;;
48481;SDS011;34284;48.278;16.378;2023-07-16T02:49:29;355.77;;;284.23;;
48481;SDS011;34284;48.278;16.378;2023-07-16T02:51:55;345.13;;;281.73;;
48481;SDS011;34284;48.278;16.378;2023-07-16T02:54:21;346.33;;;282.35;;
48481;SDS011;34284;48.278;16.378;2023-07-16T02:56:47;347.90;;;286.15;;
48481;SDS011;34284;48.278;16.378;2023-07-16T02:59:13;240.63;;;204.32;;
48481;SDS011;34284;48.278;16.378;2023-07-16T03:01:39;349.52;;;285.52;;
48481;SDS011;34284;48.278;16.378;2023-07-16T03:04:05;342.40;;;284.48;;
48481;SDS011;34284;48.278;16.378;2023-07-16T03:06:31;352.13;;;289.73;;
48481;SDS011;34284;48.278;16.378;2023-07-16T03:08:57;352.45;;;285.42;;
48481;SDS011;34284;48.278;16.378;2023-07-16T03:11:23;347.60;;;283.55;;
48481;SDS011;34284;48.278;16.378;2023-07-16T03:13:49;346.00;;;282.30;;
48481;SDS011;34284;48.278;16.378;2023-07-16T03:16:15;345.55;;;284.77;;
48481;SDS011;34284;48.278;16.378;2023-07-16T03:18:41;348.27;;;286.08;;
48481;SDS011;34284;48.278;16.378;2023-07-16T03:21:07;350.15;;;288.50;;
48481;SDS011;34284;48.278;16.378;2023-07-16T03:23:33;347.83;;;285.33;;
48481;SDS011;34284;48.278;16.378;2023-07-16T03:25:59;349.08;;;285.30;;
48481;SDS011;34284;48.278;16.378;2023-07-16T03:28:25;346.77;;;285.30;;
48481;SDS011;34284;48.278;16.378;2023-07-16T03:30:51;335.15;;;272.92;;
48481;SDS011;34284;48.278;16.378;2023-07-16T03:33:19;343.23;;;282.75;;
48481;SDS011;34284;48.278;16.378;2023-07-16T03:35:45;353.67;;;314.92;;
48481;SDS011;34284;48.278;16.378;2023-07-16T03:38:12;347.15;;;284.45;;
48481;SDS011;34284;48.278;16.378;2023-07-16T03:40:38;343.95;;;282.77;;
48481;SDS011;34284;48.278;16.378;2023-07-16T03:43:05;339.75;;;284.35;;
48481;SDS011;34284;48.278;16.378;2023-07-16T03:45:31;335.88;;;282.90;;
48481;SDS011;34284;48.278;16.378;2023-07-16T03:47:57;348.00;;;283.80;;
48481;SDS011;34284;48.278;16.378;2023-07-16T03:50:23;346.10;;;287.13;;
48481;SDS011;34284;48.278;16.378;2023-07-16T03:52:49;342.15;;;283.88;;
48481;SDS011;34284;48.278;16.378;2023-07-16T03:55:15;345.65;;;286.52;;
48481;SDS011;34284;48.278;16.378;2023-07-16T03:57:41;345.50;;;287.50;;
48481;SDS011;34284;48.278;16.378;2023-07-16T04:00:07;349.20;;;289.73;;
48481;SDS011;34284;48.278;16.378;2023-07-16T04:02:35;355.88;;;287.67;;
48481;SDS011;34284;48.278;16.378;2023-07-16T04:05:01;255.98;;;212.13;;
48481;SDS011;34284;48.278;16.378;2023-07-16T04:07:27;348.95;;;287.58;;
48481;SDS011;34284;48.278;16.378;2023-07-16T04:09:53;345.92;;;288.25;;
48481;SDS011;34284;48.278;16.378;2023-07-16T04:12:19;344.90;;;287.08;;
48481;SDS011;34284;48.278;16.378;2023-07-16T04:14:46;346.23;;;290.35;;
48481;SDS011;34284;48.278;16.378;2023-07-16T04:17:12;342.77;;;275.98;;
48481;SDS011;34284;48.278;16.378;2023-07-16T04:19:38;359.85;;;283.98;;
48481;SDS011;34284;48.278;16.378;2023-07-16T04:22:05;354.85;;;287.13;;
48481;SDS011;34284;48.278;16.378;2023-07-16T04:24:31;351.52;;;285.90;;
48481;SDS011;34284;48.278;16.378;2023-07-16T04:26:57;255.13;;;213.40;;
48481;SDS011;34284;48.278;16.378;2023-07-16T04:29:23;350.05;;;287.27;;
48481;SDS011;34284;48.278;16.378;2023-07-16T04:31:49;353.50;;;285.80;;
48481;SDS011;34284;48.278;16.378;2023-07-16T04:34:15;346.00;;;281.48;;
48481;SDS011;34284;48.278;16.378;2023-07-16T04:36:42;353.48;;;288.15;;
48481;SDS011;34284;48.278;16.378;2023-07-16T04:39:08;244.32;;;201.93;;
48481;SDS011;34284;48.278;16.378;2023-07-16T04:41:34;350.95;;;289.92;;
48481;SDS011;34284;48.278;16.378;2023-07-16T04:44:00;347.92;;;292.13;;
48481;SDS011;34284;48.278;16.378;2023-07-16T04:46:26;339.67;;;289.73;;
48481;SDS011;34284;48.278;16.378;2023-07-16T04:48:52;344.55;;;296.80;;
48481;SDS011;34284;48.278;16.378;2023-07-16T04:51:18;343.85;;;292.50;;
48481;SDS011;34284;48.278;16.378;2023-07-16T04:53:44;359.77;;;293.55;;
48481;SDS011;34284;48.278;16.378;2023-07-16T04:56:11;347.60;;;291.40;;
48481;SDS011;34284;48.278;16.378;2023-07-16T04:58:37;345.00;;;280.77;;
48481;SDS011;34284;48.278;16.378;2023-07-16T05:01:03;352.63;;;286.30;;
48481;SDS011;34284;48.278;16.378;2023-07-16T05:03:29;346.33;;;291.00;;
48481;SDS011;34284;48.278;16.378;2023-07-16T05:05:56;350.70;;;294.77;;
48481;SDS011;34284;48.278;16.378;2023-07-16T05:08:22;351.10;;;294.20;;
48481;SDS011;34284;48.278;16.378;2023-07-16T05:10:48;350.67;;;293.23;;
48481;SDS011;34284;48.278;16.378;2023-07-16T05:13:14;351.55;;;284.48;;
48481;SDS011;34284;48.278;16.378;2023-07-16T05:15:40;348.65;;;289.88;;
48481;SDS011;34284;48.278;16.378;2023-07-16T05:18:06;351.15;;;289.92;;
48481;SDS011;34284;48.278;16.378;2023-07-16T05:20:32;346.05;;;289.85;;
48481;SDS011;34284;48.278;16.378;2023-07-16T05:22:58;342.58;;;288.38;;
48481;SDS011;34284;48.278;16.378;2023-07-16T05:25:24;352.58;;;293.02;;
48481;SDS011;34284;48.278;16.378;2023-07-16T05:27:50;348.17;;;296.27;;
48481;SDS011;34284;48.278;16.378;2023-07-16T05:30:16;353.92;;;305.08;;
48481;SDS011;34284;48.278;16.378;2023-07-16T05:32:42;355.40;;;296.83;;
48481;SDS011;34284;48.278;16.378;2023-07-16T05:35:08;355.00;;;298.52;;
48481;SDS011;34284;48.278;16.378;2023-07-16T05:37:34;374.63;;;297.40;;
48481;SDS011;34284;48.278;16.378;2023-07-16T05:40:01;364.25;;;297.50;;
48481;SDS011;34284;48.278;16.378;2023-07-16T05:42:28;359.98;;;304.23;;
48481;SDS011;34284;48.278;16.378;2023-07-16T05:44:54;254.07;;;215.40;;
48481;SDS011;34284;48.278;16.378;2023-07-16T05:47:20;360.40;;;295.25;;
48481;SDS011;34284;48.278;16.378;2023-07-16T05:49:46;358.25;;;300.00;;
48481;SDS011;34284;48.278;16.378;2023-07-16T05:52:12;351.98;;;293.08;;
48481;SDS011;34284;48.278;16.378;2023-07-16T05:54:38;354.80;;;299.17;;
48481;SDS011;34284;48.278;16.378;2023-07-16T05:57:04;355.02;;;291.92;;
48481;SDS011;34284;48.278;16.378;2023-07-16T05:59:30;356.30;;;300.30;;
48481;SDS011;34284;48.278;16.378;2023-07-16T06:01:59;352.83;;;305.75;;
48481;SDS011;34284;48.278;16.378;2023-07-16T06:04:25;356.52;;;310.83;;
48481;SDS011;34284;48.278;16.378;2023-07-16T06:06:51;361.08;;;311.23;;
48481;SDS011;34284;48.278;16.378;2023-07-16T06:09:17;357.00;;;310.10;;
48481;SDS011;34284;48.278;16.378;2023-07-16T06:11:45;360.95;;;301.25;;
48481;SDS011;34284;48.278;16.378;2023-07-16T06:14:12;359.65;;;306.15;;
48481;SDS011;34284;48.278;16.378;2023-07-16T06:16:38;366.00;;;316.25;;
48481;SDS011;34284;48.278;16.378;2023-07-16T06:19:04;362.70;;;310.35;;
48481;SDS011;34284;48.278;16.378;2023-07-16T06:21:30;353.75;;;310.27;;
48481;SDS011;34284;48.278;16.378;2023-07-16T06:23:56;360.40;;;313.98;;
48481;SDS011;34284;48.278;16.378;2023-07-16T06:26:22;359.27;;;315.63;;
48481;SDS011;34284;48.278;16.378;2023-07-16T06:28:48;362.10;;;321.30;;
48481;SDS011;34284;48.278;16.378;2023-07-16T06:31:17;360.02;;;316.88;;
48481;SDS011;34284;48.278;16.378;2023-07-16T06:33:44;362.85;;;320.42;;
48481;SDS011;34284;48.278;16.378;2023-07-16T06:36:14;369.85;;;323.23;;
48481;SDS011;34284;48.278;16.378;2023-07-16T06:38:40;373.63;;;324.65;;
48481;SDS011;34284;48.278;16.378;2023-07-16T06:41:09;362.45;;;319.63;;
48481;SDS011;34284;48.278;16.378;2023-07-16T06:43:34;374.52;;;326.23;;
48481;SDS011;34284;48.278;16.378;2023-07-16T06:46:00;365.88;;;322.67;;
48481;SDS011;34284;48.278;16.378;2023-07-16T06:48:27;367.52;;;324.83;;
48481;SDS011;34284;48.278;16.378;2023-07-16T06:50:53;369.23;;;328.83;;
48481;SDS011;34284;48.278;16.378;2023-07-16T06:53:19;368.92;;;328.80;;
48481;SDS011;34284;48.278;16.378;2023-07-16T06:55:47;376.48;;;335.50;;
48481;SDS011;34284;48.278;16.378;2023-07-16T06:58:14;380.00;;;339.15;;
48481;SDS011;34284;48.278;16.378;2023-07-16T07:00:40;377.42;;;336.42;;
48481;SDS011;34284;48.278;16.378;2023-07-16T07:03:06;385.52;;;343.48;;
48481;SDS011;34284;48.278;16.378;2023-07-16T07:05:32;375.10;;;334.70;;
48481;SDS011;34284;48.278;16.378;2023-07-16T07:08:01;377.88;;;337.45;;
48481;SDS011;34284;48.278;16.378;2023-07-16T07:10:26;387.23;;;346.30;;
48481;SDS011;34284;48.278;16.378;2023-07-16T07:12:52;386.20;;;345.20;;
48481;SDS011;34284;48.278;16.378;2023-07-16T07:15:18;388.17;;;346.50;;
48481;SDS011;34284;48.278;16.378;2023-07-16T07:17:45;387.42;;;346.13;;
48481;SDS011;34284;48.278;16.378;2023-07-16T07:20:11;375.10;;;334.17;;
48481;SDS011;34284;48.278;16.378;2023-07-16T07:22:38;381.23;;;340.23;;
48481;SDS011;34284;48.278;16.378;2023-07-16T07:25:04;383.27;;;341.90;;
48481;SDS011;34284;48.278;16.378;2023-07-16T07:27:30;381.63;;;341.10;;
48481;SDS011;34284;48.278;16.378;2023-07-16T07:29:56;386.25;;;345.88;;
48481;SDS011;34284;48.278;16.378;2023-07-16T07:32:22;390.55;;;349.55;;
48481;SDS011;34284;48.278;16.378;2023-07-16T07:34:48;397.50;;;355.67;;
48481;SDS011;34284;48.278;16.378;2023-07-16T07:37:14;396.73;;;355.08;;
48481;SDS011;34284;48.278;16.378;2023-07-16T07:39:40;397.70;;;355.95;;
48481;SDS011;34284;48.278;16.378;2023-07-16T07:42:06;402.80;;;359.52;;
48481;SDS011;34284;48.278;16.378;2023-07-16T07:44:34;399.52;;;357.52;;
48481;SDS011;34284;48.278;16.378;2023-07-16T07:47:00;407.33;;;365.25;;
48481;SDS011;34284;48.278;16.378;2023-07-16T07:49:26;403.83;;;362.30;;
48481;SDS011;34284;48.278;16.378;2023-07-16T07:51:52;410.55;;;367.13;;
48481;SDS011;34284;48.278;16.378;2023-07-16T07:54:18;412.77;;;369.95;;
48481;SDS011;34284;48.278;16.378;2023-07-16T07:56:45;413.60;;;370.23;;
48481;SDS011;34284;48.278;16.378;2023-07-16T07:59:11;412.15;;;368.33;;
48481;SDS011;34284;48.278;16.378;2023-07-16T08:01:37;409.10;;;366.85;;
48481;SDS011;34284;48.278;16.378;2023-07-16T08:04:03;416.02;;;373.50;;
48481;SDS011;34284;48.278;16.378;2023-07-16T08:06:29;410.33;;;368.23;;
48481;SDS011;34284;48.278;16.378;2023-07-16T08:08:55;411.58;;;369.35;;
48481;SDS011;34284;48.278;16.378;2023-07-16T08:11:21;408.85;;;366.85;;
48481;SDS011;34284;48.278;16.378;2023-07-16T08:13:48;412.55;;;370.00;;
48481;SDS011;34284;48.278;16.378;2023-07-16T08:16:15;417.00;;;374.77;;
48481;SDS011;34284;48.278;16.378;2023-07-16T08:18:41;424.98;;;382.17;;
48481;SDS011;34284;48.278;16.378;2023-07-16T08:21:07;425.25;;;382.55;;
48481;SDS011;34284;48.278;16.378;2023-07-16T08:23:33;423.50;;;381.08;;
48481;SDS011;34284;48.278;16.378;2023-07-16T08:25:59;421.85;;;379.77;;
48481;SDS011;34284;48.278;16.378;2023-07-16T08:28:25;432.73;;;389.75;;
48481;SDS011;34284;48.278;16.378;2023-07-16T08:30:51;434.00;;;390.50;;
48481;SDS011;34284;48.278;16.378;2023-07-16T08:33:17;432.92;;;389.58;;
48481;SDS011;34284;48.278;16.378;2023-07-16T08:35:43;432.30;;;389.40;;
48481;SDS011;34284;48.278;16.378;2023-07-16T08:38:10;434.38;;;391.75;;
48481;SDS011;34284;48.278;16.378;2023-07-16T08:40:36;444.52;;;401.30;;
48481;SDS011;34284;48.278;16.378;2023-07-16T08:43:03;443.48;;;399.85;;
48481;SDS011;34284;48.278;16.378;2023-07-16T08:45:32;445.98;;;402.50;;
48481;SDS011;34284;48.278;16.378;2023-07-16T08:48:01;450.13;;;406.00;;
48481;SDS011;34284;48.278;16.378;2023-07-16T08:50:27;446.58;;;402.92;;
48481;SDS011;34284;48.278;16.378;2023-07-16T08:52:54;449.63;;;404.60;;
48481;SDS011;34284;48.278;16.378;2023-07-16T08:55:21;545.10;;;495.23;;
48481;SDS011;34284;48.278;16.378;2023-07-16T08:57:47;444.63;;;401.80;;
48481;SDS011;34284;48.278;16.378;2023-07-16T09:00:13;441.40;;;398.05;;
48481;SDS011;34284;48.278;16.378;2023-07-16T09:02:40;442.83;;;400.20;;
48481;SDS011;34284;48.278;16.378;2023-07-16T09:05:07;442.35;;;399.65;;
48481;SDS011;34284;48.278;16.378;2023-07-16T09:07:34;442.92;;;400.05;;
48481;SDS011;34284;48.278;16.378;2023-07-16T09:10:02;443.42;;;400.52;;
48481;SDS011;34284;48.278;16.378;2023-07-16T09:12:29;441.98;;;399.05;;
48481;SDS011;34284;48.278;16.378;2023-07-16T09:14:55;440.17;;;397.75;;
48481;SDS011;34284;48.278;16.378;2023-07-16T09:17:21;449.85;;;406.38;;
48481;SDS011;34284;48.278;16.378;2023-07-16T09:19:48;451.63;;;407.92;;
48481;SDS011;34284;48.278;16.378;2023-07-16T09:22:16;452.88;;;409.63;;
48481;SDS011;34284;48.278;16.378;2023-07-16T09:24:44;451.65;;;407.88;;
48481;SDS011;34284;48.278;16.378;2023-07-16T09:27:11;450.67;;;407.48;;
48481;SDS011;34284;48.278;16.378;2023-07-16T09:29:38;448.70;;;405.02;;
48481;SDS011;34284;48.278;16.378;2023-07-16T09:32:04;447.13;;;404.48;;
48481;SDS011;34284;48.278;16.378;2023-07-16T09:34:30;450.85;;;407.95;;
48481;SDS011;34284;48.278;16.378;2023-07-16T09:36:57;461.38;;;417.52;;
48481;SDS011;34284;48.278;16.378;2023-07-16T09:39:23;460.58;;;416.83;;
48481;SDS011;34284;48.278;16.378;2023-07-16T09:41:50;456.98;;;413.17;;
48481;SDS011;34284;48.278;16.378;2023-07-16T09:44:16;494.83;;;447.63;;
48481;SDS011;34284;48.278;16.378;2023-07-16T09:46:43;459.33;;;414.88;;
48481;SDS011;34284;48.278;16.378;2023-07-16T09:49:09;471.50;;;425.33;;
48481;SDS011;34284;48.278;16.378;2023-07-16T09:51:36;466.70;;;422.73;;
48481;SDS011;34284;48.278;16.378;2023-07-16T09:54:02;471.25;;;426.58;;
48481;SDS011;34284;48.278;16.378;2023-07-16T09:56:50;481.30;;;436.40;;
48481;SDS011;34284;48.278;16.378;2023-07-16T09:59:15;475.42;;;430.45;;
48481;SDS011;34284;48.278;16.378;2023-07-16T10:01:42;474.48;;;429.52;;
48481;SDS011;34284;48.278;16.378;2023-07-16T10:04:15;480.20;;;435.58;;
48481;SDS011;34284;48.278;16.378;2023-07-16T10:06:51;482.08;;;437.10;;
48481;SDS011;34284;48.278;16.378;2023-07-16T10:12:15;483.13;;;438.60;;
48481;SDS011;34284;48.278;16.378;2023-07-16T10:17:15;473.23;;;428.95;;
48481;SDS011;34284;48.278;16.378;2023-07-16T10:22:37;469.67;;;425.75;;
48481;SDS011;34284;48.278;16.378;2023-07-16T10:25:08;473.77;;;429.30;;
48481;SDS011;34284;48.278;16.378;2023-07-16T10:27:35;473.70;;;429.15;;
48481;SDS011;34284;48.278;16.378;2023-07-16T10:30:02;480.80;;;436.25;;
48481;SDS011;34284;48.278;16.378;2023-07-16T10:32:29;479.17;;;434.17;;
48481;SDS011;34284;48.278;16.378;2023-07-16T10:34:55;523.97;;;477.45;;
48481;SDS011;34284;48.278;16.378;2023-07-16T10:37:22;480.13;;;435.30;;
48481;SDS011;34284;48.278;16.378;2023-07-16T10:39:49;480.08;;;435.73;;
48481;SDS011;34284;48.278;16.378;2023-07-16T10:42:15;480.63;;;436.27;;
48481;SDS011;34284;48.278;16.378;2023-07-16T10:44:42;481.65;;;436.83;;
48481;SDS011;34284;48.278;16.378;2023-07-16T10:47:08;481.83;;;437.63;;
48481;SDS011;34284;48.278;16.378;2023-07-16T10:49:35;475.95;;;431.70;;
48481;SDS011;34284;48.278;16.378;2023-07-16T10:52:01;481.35;;;436.95;;
48481;SDS011;34284;48.278;16.378;2023-07-16T10:54:27;487.92;;;443.15;;
48481;SDS011;34284;48.278;16.378;2023-07-16T10:56:54;487.92;;;442.50;;
48481;SDS011;34284;48.278;16.378;2023-07-16T10:59:20;494.17;;;448.70;;
48481;SDS011;34284;48.278;16.378;2023-07-16T11:01:46;498.67;;;453.02;;
48481;SDS011;34284;48.278;16.378;2023-07-16T11:04:12;497.67;;;452.27;;
48481;SDS011;34284;48.278;16.378;2023-07-16T11:06:38;499.17;;;454.13;;
48481;SDS011;34284;48.278;16.378;2023-07-16T11:09:10;504.65;;;458.60;;
48481;SDS011;34284;48.278;16.378;2023-07-16T11:11:36;508.92;;;463.17;;
48481;SDS011;34284;48.278;16.378;2023-07-16T11:14:04;500.85;;;456.17;;
48481;SDS011;34284;48.278;16.378;2023-07-16T11:16:36;508.33;;;463.15;;
48481;SDS011;34284;48.278;16.378;2023-07-16T11:19:05;512.17;;;466.58;;
48481;SDS011;34284;48.278;16.378;2023-07-16T11:21:34;519.70;;;474.02;;
48481;SDS011;34284;48.278;16.378;2023-07-16T11:24:10;502.50;;;457.40;;
48481;SDS011;34284;48.278;16.378;2023-07-16T11:26:38;511.65;;;465.90;;
48481;SDS011;34284;48.278;16.378;2023-07-16T11:29:13;514.75;;;468.83;;
48481;SDS011;34284;48.278;16.378;2023-07-16T11:31:40;519.65;;;473.40;;
48481;SDS011;34284;48.278;16.378;2023-07-16T11:34:15;517.13;;;471.15;;
48481;SDS011;34284;48.278;16.378;2023-07-16T11:36:41;520.50;;;474.13;;
48481;SDS011;34284;48.278;16.378;2023-07-16T11:39:07;521.67;;;475.20;;
48481;SDS011;34284;48.278;16.378;2023-07-16T11:41:36;520.28;;;473.67;;
48481;SDS011;34284;48.278;16.378;2023-07-16T11:44:02;542.08;;;494.42;;
48481;SDS011;34284;48.278;16.378;2023-07-16T11:46:32;539.95;;;492.88;;
48481;SDS011;34284;48.278;16.378;2023-07-16T11:48:59;519.75;;;473.17;;
48481;SDS011;34284;48.278;16.378;2023-07-16T11:51:25;524.55;;;477.60;;
48481;SDS011;34284;48.278;16.378;2023-07-16T11:53:51;513.75;;;466.88;;
48481;SDS011;34284;48.278;16.378;2023-07-16T11:56:17;521.88;;;474.50;;
48481;SDS011;34284;48.278;16.378;2023-07-16T11:58:43;520.63;;;473.33;;
48481;SDS011;34284;48.278;16.378;2023-07-16T12:01:09;522.17;;;475.25;;
48481;SDS011;34284;48.278;16.378;2023-07-16T12:03:35;522.75;;;476.10;;
48481;SDS011;34284;48.278;16.378;2023-07-16T12:06:01;519.72;;;473.20;;
48481;SDS011;34284;48.278;16.378;2023-07-16T12:08:27;528.08;;;480.20;;
48481;SDS011;34284;48.278;16.378;2023-07-16T12:10:54;523.47;;;476.50;;
48481;SDS011;34284;48.278;16.378;2023-07-16T12:13:20;523.00;;;475.73;;
48481;SDS011;34284;48.278;16.378;2023-07-16T12:15:46;551.47;;;502.65;;
48481;SDS011;34284;48.278;16.378;2023-07-16T12:18:12;522.47;;;475.52;;
48481;SDS011;34284;48.278;16.378;2023-07-16T12:20:38;528.85;;;482.30;;
48481;SDS011;34284;48.278;16.378;2023-07-16T12:23:05;537.10;;;490.00;;
48481;SDS011;34284;48.278;16.378;2023-07-16T12:25:31;533.83;;;486.73;;
48481;SDS011;34284;48.278;16.378;2023-07-16T12:27:57;544.10;;;496.60;;
48481;SDS011;34284;48.278;16.378;2023-07-16T12:30:24;543.83;;;496.40;;
48481;SDS011;34284;48.278;16.378;2023-07-16T12:32:50;535.55;;;488.30;;
48481;SDS011;34284;48.278;16.378;2023-07-16T12:35:16;534.13;;;486.70;;
48481;SDS011;34284;48.278;16.378;2023-07-16T12:37:42;534.53;;;487.65;;
48481;SDS011;34284;48.278;16.378;2023-07-16T12:40:08;540.65;;;492.88;;
48481;SDS011;34284;48.278;16.378;2023-07-16T12:42:34;545.25;;;497.33;;
48481;SDS011;34284;48.278;16.378;2023-07-16T12:45:01;529.85;;;483.33;;
48481;SDS011;34284;48.278;16.378;2023-07-16T12:47:27;543.47;;;495.50;;
48481;SDS011;34284;48.278;16.378;2023-07-16T12:49:53;534.55;;;486.90;;
48481;SDS011;34284;48.278;16.378;2023-07-16T12:52:19;536.15;;;488.73;;
48481;SDS011;34284;48.278;16.378;2023-07-16T12:54:45;542.33;;;494.65;;
48481;SDS011;34284;48.278;16.378;2023-07-16T12:57:11;534.75;;;487.67;;
48481;SDS011;34284;48.278;16.378;2023-07-16T12:59:37;533.67;;;486.95;;
48481;SDS011;34284;48.278;16.378;2023-07-16T13:02:03;536.13;;;489.27;;
48481;SDS011;34284;48.278;16.378;2023-07-16T13:04:29;534.50;;;487.42;;
48481;SDS011;34284;48.278;16.378;2023-07-16T13:06:55;524.13;;;476.90;;
48481;SDS011;34284;48.278;16.378;2023-07-16T13:09:21;517.33;;;470.38;;
48481;SDS011;34284;48.278;16.378;2023-07-16T13:11:48;526.28;;;479.13;;
48481;SDS011;34284;48.278;16.378;2023-07-16T13:14:14;528.20;;;481.38;;
48481;SDS011;34284;48.278;16.378;2023-07-16T13:16:40;523.97;;;477.27;;
48481;SDS011;34284;48.278;16.378;2023-07-16T13:19:06;518.10;;;471.70;;
48481;SDS011;34284;48.278;16.378;2023-07-16T13:21:32;515.42;;;469.13;;
48481;SDS011;34284;48.278;16.378;2023-07-16T13:23:58;527.92;;;480.80;;
48481;SDS011;34284;48.278;16.378;2023-07-16T13:26:24;526.85;;;479.38;;
48481;SDS011;34284;48.278;16.378;2023-07-16T13:28:50;521.25;;;474.33;;
48481;SDS011;34284;48.278;16.378;2023-07-16T13:31:17;510.85;;;464.67;;
48481;SDS011;34284;48.278;16.378;2023-07-16T13:33:43;513.58;;;466.98;;
48481;SDS011;34284;48.278;16.378;2023-07-16T13:36:09;515.85;;;469.15;;
48481;SDS011;34284;48.278;16.378;2023-07-16T13:38:35;518.53;;;471.80;;
48481;SDS011;34284;48.278;16.378;2023-07-16T13:41:01;515.85;;;469.30;;
48481;SDS011;34284;48.278;16.378;2023-07-16T13:43:27;513.45;;;467.02;;
48481;SDS011;34284;48.278;16.378;2023-07-16T13:45:53;514.55;;;467.67;;
48481;SDS011;34284;48.278;16.378;2023-07-16T13:48:19;516.13;;;469.15;;
48481;SDS011;34284;48.278;16.378;2023-07-16T13:50:45;509.20;;;463.05;;
48481;SDS011;34284;48.278;16.378;2023-07-16T13:53:11;515.88;;;469.27;;
48481;SDS011;34284;48.278;16.378;2023-07-16T13:55:38;513.78;;;467.75;;
48481;SDS011;34284;48.278;16.378;2023-07-16T13:58:04;507.88;;;461.30;;